Time;durP1;ratioP1;P1;durP2;ratioP2;P2;SDS_P1;SDS_P2;PMS_P1;PMS_P2;Temp;Humidity;BMP_temperature;BMP_pressure;BME280_temperature;BME280_humidity;BME280_pressure;Samples;Min_cycle;Max_cycle;Signal;HPM_P1;HPM_P2
2023/07/12 00:02:58;;;;;;;13.38;8.30;;;;;;;;;;8411232;28;20036;-87
2023/07/12 00:07:00;;;;;;;12.65;8.55;;;;;;;;;;8424348;28;20473;-82
2023/07/12 00:11:03;;;;;;;11.02;7.95;;;;;;;;;;8406335;28;20476;-88
2023/07/12 00:15:07;;;;;;;13.68;8.32;;;;;;;;;;8405069;28;20055;-82
2023/07/12 00:19:14;;;;;;;11.48;8.93;;;;;;;;;;8418033;28;20468;-86
2023/07/12 00:23:18;;;;;;;13.98;8.82;;;;;;;;;;8427182;28;20048;-89
2023/07/12 00:27:21;;;;;;;11.68;8.45;;;;;;;;;;8423937;28;20842;-91
2023/07/12 00:31:24;;;;;;;11.73;7.97;;;;;;;;;;8432170;28;20044;-89
2023/07/12 00:35:29;;;;;;;12.05;8.60;;;;;;;;;;8423691;28;20513;-87
2023/07/12 00:39:33;;;;;;;11.57;8.73;;;;;;;;;;8412863;28;20543;-88
2023/07/12 00:43:39;;;;;;;12.43;8.02;;;;;;;;;;8416584;28;20036;-81
2023/07/12 00:47:43;;;;;;;11.88;7.35;;;;;;;;;;8434953;28;20040;-88
2023/07/12 00:51:51;;;;;;;11.07;7.22;;;;;;;;;;8435221;28;20048;-90
2023/07/12 00:56:03;;;;;;;13.77;8.52;;;;;;;;;;8435233;28;20451;-87
2023/07/12 01:00:10;;;;;;;12.50;7.75;;;;;;;;;;8434632;28;20455;-89
2023/07/12 01:04:17;;;;;;;12.48;7.97;;;;;;;;;;8411052;28;20048;-83
2023/07/12 01:08:22;;;;;;;12.40;8.55;;;;;;;;;;8421377;28;20123;-82
2023/07/12 01:12:25;;;;;;;11.88;8.23;;;;;;;;;;8434131;28;20110;-91
2023/07/12 01:16:30;;;;;;;12.80;7.68;;;;;;;;;;8434544;28;20423;-83
2023/07/12 01:20:36;;;;;;;13.18;9.50;;;;;;;;;;8434367;28;20135;-82
2023/07/12 01:24:41;;;;;;;11.70;7.88;;;;;;;;;;8433866;28;20399;-84
2023/07/12 01:28:44;;;;;;;12.20;7.88;;;;;;;;;;8433606;28;20058;-89
2023/07/12 01:32:46;;;;;;;13.57;7.88;;;;;;;;;;8433436;28;20059;-88
2023/07/12 01:36:49;;;;;;;13.38;8.40;;;;;;;;;;8433201;28;20130;-90
2023/07/12 01:40:53;;;;;;;16.60;8.23;;;;;;;;;;8433469;28;20044;-89
2023/07/12 01:44:57;;;;;;;13.02;8.43;;;;;;;;;;8433041;28;20445;-86
2023/07/12 01:49:00;;;;;;;12.50;8.82;;;;;;;;;;8433278;28;20052;-92
2023/07/12 01:53:03;;;;;;;13.82;8.43;;;;;;;;;;8432840;28;20048;-91
2023/07/12 01:57:08;;;;;;;12.13;8.13;;;;;;;;;;8432866;28;20044;-91
2023/07/12 02:01:11;;;;;;;13.50;8.07;;;;;;;;;;8432604;28;20105;-91
2023/07/12 02:05:13;;;;;;;13.48;7.78;;;;;;;;;;8431462;28;20063;-87
2023/07/12 02:09:16;;;;;;;11.68;8.27;;;;;;;;;;8414558;28;20059;-83
2023/07/12 02:13:22;;;;;;;11.88;7.97;;;;;;;;;;8432273;28;20060;-83
2023/07/12 02:17:25;;;;;;;13.45;7.68;;;;;;;;;;8432248;28;20131;-83
2023/07/12 02:21:28;;;;;;;13.77;8.23;;;;;;;;;;8432579;28;20486;-89
2023/07/12 02:25:30;;;;;;;10.63;7.68;;;;;;;;;;8431829;28;20040;-91
2023/07/12 02:29:35;;;;;;;15.38;8.40;;;;;;;;;;8432002;28;20046;-92
2023/07/12 02:33:38;;;;;;;12.45;8.50;;;;;;;;;;8431862;28;20048;-92
2023/07/12 02:37:41;;;;;;;11.70;8.18;;;;;;;;;;8431513;28;20411;-91
2023/07/12 02:41:43;;;;;;;13.05;8.55;;;;;;;;;;8431772;28;20178;-88
2023/07/12 02:45:49;;;;;;;13.57;9.18;;;;;;;;;;8431401;28;20047;-91
2023/07/12 02:49:52;;;;;;;13.85;8.23;;;;;;;;;;8430273;28;20055;-91
2023/07/12 02:53:54;;;;;;;10.52;7.82;;;;;;;;;;8430611;28;20048;-81
2023/07/12 02:57:57;;;;;;;13.93;8.55;;;;;;;;;;8425182;28;20043;-92
2023/07/12 03:02:02;;;;;;;11.85;9.00;;;;;;;;;;8430948;28;20075;-83
2023/07/12 03:06:06;;;;;;;14.07;8.68;;;;;;;;;;8430539;28;20117;-92
2023/07/12 03:10:10;;;;;;;11.20;8.23;;;;;;;;;;8430631;28;20044;-91
2023/07/12 03:14:14;;;;;;;13.13;8.15;;;;;;;;;;8415184;28;20414;-82
2023/07/12 03:18:18;;;;;;;13.10;8.35;;;;;;;;;;8410711;28;20132;-90
2023/07/12 03:22:21;;;;;;;10.95;7.60;;;;;;;;;;8425653;28;20062;-91
2023/07/12 03:26:24;;;;;;;11.05;7.45;;;;;;;;;;8430308;28;20131;-91
2023/07/12 03:30:27;;;;;;;11.02;7.65;;;;;;;;;;8430267;28;20046;-81
2023/07/12 03:34:31;;;;;;;11.35;7.47;;;;;;;;;;8430335;28;20042;-91
2023/07/12 03:38:34;;;;;;;10.48;6.97;;;;;;;;;;8430505;28;20484;-90
2023/07/12 03:42:37;;;;;;;10.70;6.70;;;;;;;;;;8430817;28;20036;-87
2023/07/12 03:46:40;;;;;;;10.30;7.15;;;;;;;;;;8430019;28;20048;-87
2023/07/12 03:50:44;;;;;;;10.00;7.00;;;;;;;;;;8429998;28;20044;-82
2023/07/12 03:54:47;;;;;;;9.95;6.75;;;;;;;;;;8421988;28;20479;-92
2023/07/12 03:58:50;;;;;;;9.15;7.13;;;;;;;;;;8421200;28;20096;-83
2023/07/12 04:02:53;;;;;;;12.02;7.57;;;;;;;;;;8429617;28;20543;-91
2023/07/12 04:06:57;;;;;;;9.88;6.72;;;;;;;;;;8435756;28;20040;-91
2023/07/12 04:11:01;;;;;;;10.15;6.57;;;;;;;;;;8433372;28;20051;-83
2023/07/12 04:15:04;;;;;;;10.52;6.38;;;;;;;;;;8425444;28;20060;-90
2023/07/12 04:19:07;;;;;;;8.93;6.13;;;;;;;;;;8432403;28;20185;-87
2023/07/12 04:23:11;;;;;;;11.73;5.93;;;;;;;;;;8411836;28;20040;-83
2023/07/12 04:27:13;;;;;;;10.57;7.50;;;;;;;;;;8416446;28;20127;-87
2023/07/12 04:31:18;;;;;;;11.18;6.32;;;;;;;;;;8413381;28;20045;-88
2023/07/12 04:35:21;;;;;;;9.68;6.65;;;;;;;;;;8421847;28;20055;-83
2023/07/12 04:39:26;;;;;;;9.52;6.65;;;;;;;;;;8415860;28;20048;-86
2023/07/12 04:43:29;;;;;;;9.50;6.60;;;;;;;;;;8408022;28;20159;-92
2023/07/12 04:47:31;;;;;;;9.82;5.68;;;;;;;;;;8417400;28;20093;-85
2023/07/12 04:51:34;;;;;;;8.23;6.70;;;;;;;;;;8400871;28;20071;-83
2023/07/12 04:55:39;;;;;;;13.38;10.00;;;;;;;;;;8413372;28;20045;-84
2023/07/12 04:59:42;;;;;;;12.00;8.45;;;;;;;;;;8405643;28;20048;-87
2023/07/12 05:03:45;;;;;;;8.35;5.57;;;;;;;;;;8418817;28;20123;-83
2023/07/12 05:07:48;;;;;;;8.35;5.30;;;;;;;;;;8414743;28;20559;-88
2023/07/12 05:11:52;;;;;;;6.40;5.07;;;;;;;;;;8413679;28;20453;-82
2023/07/12 05:15:55;;;;;;;5.90;4.70;;;;;;;;;;8417322;28;20044;-86
2023/07/12 05:19:58;;;;;;;8.18;5.20;;;;;;;;;;8412812;28;20050;-89
2023/07/12 05:24:01;;;;;;;7.38;4.90;;;;;;;;;;8423885;28;20123;-84
2023/07/12 05:28:06;;;;;;;7.82;4.82;;;;;;;;;;8429313;28;20131;-82
2023/07/12 05:32:09;;;;;;;7.88;4.90;;;;;;;;;;8419975;28;20055;-89
2023/07/12 05:36:13;;;;;;;8.27;4.97;;;;;;;;;;8432724;28;20410;-82
2023/07/12 05:40:17;;;;;;;9.20;5.75;;;;;;;;;;8432642;28;20070;-89
2023/07/12 05:44:20;;;;;;;8.27;4.82;;;;;;;;;;8431808;28;20495;-81
2023/07/12 05:48:23;;;;;;;6.32;4.68;;;;;;;;;;8432625;28;20116;-89
2023/07/12 05:52:27;;;;;;;8.30;4.53;;;;;;;;;;8432410;28;20048;-85
2023/07/12 05:56:30;;;;;;;10.05;7.88;;;;;;;;;;8430947;28;20511;-85
2023/07/12 06:00:35;;;;;;;7.45;4.18;;;;;;;;;;8425602;28;20071;-88
2023/07/12 06:04:38;;;;;;;7.15;4.57;;;;;;;;;;8405832;28;20123;-87
2023/07/12 06:08:40;;;;;;;7.05;4.80;;;;;;;;;;8411082;28;20123;-81
2023/07/12 06:12:44;;;;;;;10.52;8.77;;;;;;;;;;8411067;28;20064;-85
2023/07/12 06:16:50;;;;;;;7.97;4.22;;;;;;;;;;8431508;28;20040;-85
2023/07/12 06:20:57;;;;;;;9.70;4.07;;;;;;;;;;8431401;28;20177;-89
2023/07/12 06:25:00;;;;;;;5.43;3.63;;;;;;;;;;8431267;28;20399;-90
2023/07/12 06:29:04;;;;;;;4.97;4.03;;;;;;;;;;8414944;28;20054;-90
2023/07/12 06:33:08;;;;;;;5.13;3.40;;;;;;;;;;8416618;28;20124;-89
2023/07/12 06:37:17;;;;;;;6.57;3.92;;;;;;;;;;8410192;28;20048;-90
2023/07/12 06:41:24;;;;;;;7.03;3.80;;;;;;;;;;8418513;28;20055;-92
2023/07/12 06:45:28;;;;;;;7.82;4.45;;;;;;;;;;8422671;28;20083;-93
2023/07/12 06:49:32;;;;;;;4.95;3.47;;;;;;;;;;8408640;28;20105;-89
2023/07/12 06:53:35;;;;;;;7.68;3.60;;;;;;;;;;8408710;28;20047;-83
2023/07/12 06:57:38;;;;;;;5.13;3.42;;;;;;;;;;8426413;28;20052;-89
2023/07/12 07:01:41;;;;;;;7.78;4.20;;;;;;;;;;8403414;28;20063;-85
2023/07/12 07:05:46;;;;;;;7.28;3.60;;;;;;;;;;8418867;28;20150;-88
2023/07/12 07:09:49;;;;;;;8.93;3.33;;;;;;;;;;8416507;28;20084;-90
2023/07/12 07:13:52;;;;;;;6.03;3.72;;;;;;;;;;8429716;28;20433;-91
2023/07/12 07:17:56;;;;;;;5.35;3.50;;;;;;;;;;8430046;28;20205;-87
2023/07/12 07:22:01;;;;;;;6.25;3.60;;;;;;;;;;8416410;28;20661;-88
2023/07/12 07:26:05;;;;;;;7.78;4.45;;;;;;;;;;8430093;28;20051;-90
2023/07/12 07:30:08;;;;;;;8.13;3.63;;;;;;;;;;8428196;28;20110;-84
2023/07/12 07:34:12;;;;;;;8.07;3.55;;;;;;;;;;8428786;28;20119;-89
2023/07/12 07:38:16;;;;;;;8.75;3.90;;;;;;;;;;8429181;28;20036;-81
2023/07/12 07:42:19;;;;;;;11.10;7.30;;;;;;;;;;8429180;28;20066;-81
2023/07/12 07:46:22;;;;;;;6.60;3.70;;;;;;;;;;8429414;28;20456;-85
2023/07/12 07:50:25;;;;;;;7.18;4.07;;;;;;;;;;8415670;28;20115;-85
2023/07/12 07:54:30;;;;;;;5.80;3.35;;;;;;;;;;8429030;28;20040;-89
2023/07/12 07:58:33;;;;;;;5.97;4.03;;;;;;;;;;8429057;28;20111;-82
2023/07/12 08:02:35;;;;;;;7.90;4.88;;;;;;;;;;8429003;28;20044;-87
2023/07/12 08:06:39;;;;;;;6.38;3.53;;;;;;;;;;8414684;28;20560;-88
2023/07/12 08:10:44;;;;;;;4.95;3.30;;;;;;;;;;8428632;28;20047;-86
2023/07/12 08:14:46;;;;;;;8.60;4.18;;;;;;;;;;8428498;28;20134;-88
2023/07/12 08:18:49;;;;;;;5.97;3.50;;;;;;;;;;8413726;28;20052;-90
2023/07/12 08:22:53;;;;;;;5.07;3.28;;;;;;;;;;8428736;28;20131;-89
2023/07/12 08:26:57;;;;;;;7.50;3.42;;;;;;;;;;8416445;28;20519;-92
2023/07/12 08:31:00;;;;;;;8.35;3.53;;;;;;;;;;8423503;28;20477;-92
2023/07/12 08:35:05;;;;;;;7.32;3.78;;;;;;;;;;8420398;28;20531;-81
2023/07/12 08:39:08;;;;;;;11.50;8.93;;;;;;;;;;8428371;28;20487;-82
2023/07/12 08:43:17;;;;;;;9.23;5.35;;;;;;;;;;8428519;28;20567;-85
2023/07/12 08:47:25;;;;;;;10.50;3.90;;;;;;;;;;8426006;28;20509;-83
2023/07/12 08:51:30;;;;;;;7.82;4.53;;;;;;;;;;8420161;28;20093;-83
2023/07/12 08:55:36;;;;;;;5.78;4.20;;;;;;;;;;8432198;28;20115;-89
2023/07/12 08:59:42;;;;;;;6.68;3.53;;;;;;;;;;8428869;28;20043;-82
2023/07/12 09:03:45;;;;;;;5.95;3.58;;;;;;;;;;8403529;28;20051;-85
2023/07/12 09:07:54;;;;;;;8.40;4.78;;;;;;;;;;8404915;28;20071;-83
2023/07/12 09:11:58;;;;;;;8.13;4.28;;;;;;;;;;8407485;28;20106;-88
2023/07/12 09:16:03;;;;;;;8.70;4.32;;;;;;;;;;8414424;28;20046;-87
2023/07/12 09:20:24;;;;;;;10.00;3.92;;;;;;;;;;8417019;28;20039;-89
2023/07/12 09:24:31;;;;;;;5.55;4.07;;;;;;;;;;8416673;28;20104;-85
2023/07/12 09:28:39;;;;;;;15.20;11.80;;;;;;;;;;8417881;28;20562;-89
2023/07/12 09:32:44;;;;;;;9.02;5.10;;;;;;;;;;8419770;28;20051;-89
2023/07/12 09:36:47;;;;;;;10.98;5.20;;;;;;;;;;8432423;28;20048;-89
2023/07/12 09:40:51;;;;;;;10.30;4.07;;;;;;;;;;8420988;28;20484;-87
2023/07/12 09:44:55;;;;;;;9.07;4.20;;;;;;;;;;8407321;28;20499;-83
2023/07/12 09:49:04;;;;;;;7.53;3.95;;;;;;;;;;8401567;28;20056;-86
2023/07/12 09:53:09;;;;;;;;;;;;;;;;;;8400934;28;20055;-87
2023/07/12 09:57:17;;;;;;;6.72;4.13;;;;;;;;;;8417456;28;19920;-88
2023/07/12 10:01:28;;;;;;;8.00;4.20;;;;;;;;;;8406295;28;20095;-87
2023/07/12 10:05:33;;;;;;;6.93;4.68;;;;;;;;;;8402276;28;20048;-81
2023/07/12 10:09:39;;;;;;;9.20;4.72;;;;;;;;;;8412128;28;20047;-81
2023/07/12 10:13:44;;;;;;;13.45;8.40;;;;;;;;;;8410978;28;20076;-84
2023/07/12 10:17:47;;;;;;;10.15;4.35;;;;;;;;;;8404218;28;20468;-87
2023/07/12 10:21:54;;;;;;;10.23;5.35;;;;;;;;;;8413955;28;20132;-87
2023/07/12 10:26:00;;;;;;;10.13;5.75;;;;;;;;;;8402524;28;20117;-86
2023/07/12 10:30:10;;;;;;;7.07;4.88;;;;;;;;;;8411030;28;20407;-81
2023/07/12 10:34:22;;;;;;;11.27;5.70;;;;;;;;;;8398058;28;20072;-87
2023/07/12 10:38:28;;;;;;;9.32;4.88;;;;;;;;;;8409821;28;20093;-86
2023/07/12 10:42:36;;;;;;;8.02;5.45;;;;;;;;;;8415544;28;20085;-82
2023/07/12 10:46:44;;;;;;;8.88;5.15;;;;;;;;;;8420733;28;20487;-87
2023/07/12 10:50:48;;;;;;;9.27;5.30;;;;;;;;;;8405156;28;20501;-86
2023/07/12 10:55:18;;;;;;;8.63;5.53;;;;;;;;;;8418442;28;20063;-81
2023/07/12 10:59:45;;;;;;;9.25;5.07;;;;;;;;;;8423760;28;20472;-81
2023/07/12 11:03:48;;;;;;;6.70;5.35;;;;;;;;;;8413072;28;20451;-89
2023/07/12 11:07:55;;;;;;;8.65;4.90;;;;;;;;;;8414000;28;20139;-91
2023/07/12 11:12:07;;;;;;;9.60;5.50;;;;;;;;;;8425656;28;20041;-85
2023/07/12 11:16:16;;;;;;;10.68;5.75;;;;;;;;;;8417601;28;20044;-88
2023/07/12 11:20:24;;;;;;;7.97;5.43;;;;;;;;;;8401617;28;20048;-85
2023/07/12 11:24:32;;;;;;;7.43;5.00;;;;;;;;;;8404102;28;20480;-86
2023/07/12 11:28:44;;;;;;;11.05;5.43;;;;;;;;;;8413273;28;20178;-86
2023/07/12 11:32:49;;;;;;;8.02;5.03;;;;;;;;;;8407348;28;20173;-83
2023/07/12 11:36:55;;;;;;;8.32;4.97;;;;;;;;;;8423409;28;20423;-87
2023/07/12 11:41:03;;;;;;;18.77;6.78;;;;;;;;;;8401073;28;20488;-93
2023/07/12 11:45:12;;;;;;;14.40;7.30;;;;;;;;;;8417948;28;20163;-95
2023/07/12 11:49:19;;;;;;;11.23;8.13;;;;;;;;;;8412240;28;20048;-92
2023/07/12 11:53:23;;;;;;;18.13;10.48;;;;;;;;;;8410630;28;20468;-86
2023/07/12 11:57:26;;;;;;;17.23;10.65;;;;;;;;;;8415760;28;20039;-87
2023/07/12 12:01:35;;;;;;;18.55;11.50;;;;;;;;;;8421801;28;20051;-83
2023/07/12 12:05:39;;;;;;;16.17;11.40;;;;;;;;;;8408181;28;20036;-83
2023/07/12 12:09:48;;;;;;;15.55;11.43;;;;;;;;;;8415205;28;20496;-89
2023/07/12 12:13:54;;;;;;;15.10;12.43;;;;;;;;;;8416249;28;20067;-87
2023/07/12 12:18:07;;;;;;;19.33;11.95;;;;;;;;;;8415426;28;20082;-84
2023/07/12 12:22:16;;;;;;;20.55;13.32;;;;;;;;;;8406997;28;20132;-87
2023/07/12 12:26:22;;;;;;;17.83;12.32;;;;;;;;;;8411871;28;20064;-83
2023/07/12 12:30:29;;;;;;;16.88;12.90;;;;;;;;;;8409758;28;20420;-82
2023/07/12 12:34:39;;;;;;;18.10;12.93;;;;;;;;;;8408128;28;20064;-83
2023/07/12 12:38:43;;;;;;;17.27;12.48;;;;;;;;;;8430608;28;20040;-89
2023/07/12 12:42:57;;;;;;;15.95;12.07;;;;;;;;;;8409738;28;20044;-85
2023/07/12 12:47:02;;;;;;;14.45;11.00;;;;;;;;;;8420372;28;20938;-90
2023/07/12 12:51:12;;;;;;;14.20;11.02;;;;;;;;;;8412619;28;20060;-84
2023/07/12 12:55:17;;;;;;;16.48;11.38;;;;;;;;;;8419895;28;20445;-83
2023/07/12 12:59:21;;;;;;;17.60;11.15;;;;;;;;;;8415629;28;20114;-87
2023/07/12 13:03:24;;;;;;;14.90;11.40;;;;;;;;;;8415522;28;20036;-85
2023/07/12 13:07:32;;;;;;;15.85;11.98;;;;;;;;;;8424105;28;20127;-84
2023/07/12 13:11:37;;;;;;;15.40;11.80;;;;;;;;;;8406895;28;20047;-84
2023/07/12 13:15:51;;;;;;;18.13;11.95;;;;;;;;;;8410977;28;20056;-89
2023/07/12 13:19:57;;;;;;;18.00;10.98;;;;;;;;;;8427372;28;20044;-85
2023/07/12 13:24:06;;;;;;;18.88;11.85;;;;;;;;;;8419575;28;20040;-87
2023/07/12 13:28:17;;;;;;;14.27;9.90;;;;;;;;;;8410193;28;20488;-85
2023/07/12 13:32:27;;;;;;;13.40;10.63;;;;;;;;;;8408635;28;20049;-89
2023/07/12 13:36:37;;;;;;;13.65;10.80;;;;;;;;;;8411467;28;20154;-84
2023/07/12 13:40:43;;;;;;;12.80;10.13;;;;;;;;;;8406647;28;20499;-86
2023/07/12 13:44:46;;;;;;;15.80;11.00;;;;;;;;;;8430816;28;20052;-90
2023/07/12 13:48:49;;;;;;;14.38;11.45;;;;;;;;;;8406580;28;20434;-84
2023/07/12 13:52:52;;;;;;;13.18;10.93;;;;;;;;;;8413980;28;20066;-88
2023/07/12 13:56:56;;;;;;;14.02;10.55;;;;;;;;;;8412486;28;20406;-85
2023/07/12 14:00:59;;;;;;;13.07;11.07;;;;;;;;;;8418434;28;20131;-91
2023/07/12 14:05:05;;;;;;;14.07;10.35;;;;;;;;;;8413766;28;20127;-93
2023/07/12 14:09:10;;;;;;;13.68;9.95;;;;;;;;;;8431548;28;20047;-92
2023/07/12 14:13:20;;;;;;;12.75;10.00;;;;;;;;;;8416206;28;20117;-91
2023/07/12 14:17:26;;;;;;;13.90;10.48;;;;;;;;;;8430862;28;20479;-85
2023/07/12 14:21:38;;;;;;;13.48;10.43;;;;;;;;;;8431141;28;20047;-93
2023/07/12 14:25:51;;;;;;;14.15;11.10;;;;;;;;;;8432633;28;20127;-94
2023/07/12 14:30:01;;;;;;;15.20;10.85;;;;;;;;;;8432999;28;20605;-90
2023/07/12 14:34:09;;;;;;;16.92;10.00;;;;;;;;;;8432784;28;20439;-93
2023/07/12 14:38:12;;;;;;;14.25;11.20;;;;;;;;;;8431615;28;20040;-84
2023/07/12 14:47:15;;;;;;;12.60;10.60;;;;;;;;;;8407843;28;20079;-88
2023/07/12 14:51:22;;;;;;;13.80;10.18;;;;;;;;;;8419716;28;20092;-84
2023/07/12 14:55:25;;;;;;;14.15;10.45;;;;;;;;;;8420414;28;20119;-93
2023/07/12 14:59:28;;;;;;;13.43;10.35;;;;;;;;;;8429885;28;20044;-90
2023/07/12 15:03:33;;;;;;;12.75;11.10;;;;;;;;;;8424923;28;20047;-83
2023/07/12 15:07:40;;;;;;;12.40;10.20;;;;;;;;;;8421141;28;20069;-94
2023/07/12 15:11:49;;;;;;;14.13;10.32;;;;;;;;;;8426853;28;20052;-82
2023/07/12 15:15:53;;;;;;;15.98;10.95;;;;;;;;;;8426396;28;20060;-84
2023/07/12 15:19:58;;;;;;;13.15;11.13;;;;;;;;;;8429512;28;20040;-92
2023/07/12 15:24:01;;;;;;;13.23;10.73;;;;;;;;;;8429838;28;20058;-91
2023/07/12 15:28:07;;;;;;;15.40;10.60;;;;;;;;;;8423498;28;20043;-88
2023/07/12 15:32:12;;;;;;;11.95;10.00;;;;;;;;;;8420014;28;20122;-83
2023/07/12 15:36:17;;;;;;;14.75;10.73;;;;;;;;;;8430090;28;20075;-85
2023/07/12 15:40:21;;;;;;;15.35;10.50;;;;;;;;;;8421600;28;20122;-85
2023/07/12 15:44:24;;;;;;;12.00;9.77;;;;;;;;;;8416524;28;20040;-92
2023/07/12 15:48:29;;;;;;;13.35;10.43;;;;;;;;;;8429692;28;20043;-91
2023/07/12 15:52:34;;;;;;;11.45;9.75;;;;;;;;;;8416463;28;20044;-87
2023/07/12 15:56:38;;;;;;;16.20;10.70;;;;;;;;;;8430243;28;20036;-87
2023/07/12 16:00:41;;;;;;;13.55;10.25;;;;;;;;;;8436444;28;20450;-87
2023/07/12 16:04:48;;;;;;;12.05;9.48;;;;;;;;;;8428217;28;20651;-92
2023/07/12 16:08:54;;;;;;;13.32;10.45;;;;;;;;;;8441537;28;20507;-86
2023/07/12 16:12:58;;;;;;;14.75;10.27;;;;;;;;;;8426881;28;20055;-87
2023/07/12 16:17:02;;;;;;;13.90;11.30;;;;;;;;;;8440295;28;20069;-89
2023/07/12 16:21:12;;;;;;;13.65;10.38;;;;;;;;;;8428123;28;20494;-92
2023/07/12 16:25:18;;;;;;;12.25;10.20;;;;;;;;;;8439707;28;20044;-88
2023/07/12 16:29:22;;;;;;;15.02;11.13;;;;;;;;;;8420705;28;20246;-82
2023/07/12 16:33:30;;;;;;;12.77;9.85;;;;;;;;;;8434599;28;20043;-87
2023/07/12 16:37:33;;;;;;;14.57;11.73;;;;;;;;;;8432927;28;20155;-89
2023/07/12 16:41:40;;;;;;;16.10;12.00;;;;;;;;;;8435432;28;20063;-85
2023/07/12 16:45:46;;;;;;;11.98;9.70;;;;;;;;;;8438816;28;20133;-82
2023/07/12 16:49:49;;;;;;;14.15;9.75;;;;;;;;;;8438815;28;20388;-90
2023/07/12 16:53:53;;;;;;;13.45;10.43;;;;;;;;;;8428502;28;20534;-93
2023/07/12 16:57:57;;;;;;;15.93;11.65;;;;;;;;;;8427521;28;20036;-91
2023/07/12 17:02:02;;;;;;;16.20;10.90;;;;;;;;;;8420354;28;20507;-92
2023/07/12 17:06:07;;;;;;;12.68;9.90;;;;;;;;;;8438655;28;20055;-91
2023/07/12 17:10:12;;;;;;;13.02;9.70;;;;;;;;;;8439005;28;20097;-92
2023/07/12 17:14:17;;;;;;;14.05;10.73;;;;;;;;;;8432508;28;20071;-92
2023/07/12 17:18:22;;;;;;;14.52;10.77;;;;;;;;;;8410507;28;20040;-86
2023/07/12 17:22:25;;;;;;;14.85;11.40;;;;;;;;;;8433240;28;20180;-93
2023/07/12 17:26:29;;;;;;;17.20;13.30;;;;;;;;;;8434579;28;20060;-92
2023/07/12 17:30:33;;;;;;;13.00;11.05;;;;;;;;;;8425219;28;20045;-89
2023/07/12 17:34:37;;;;;;;13.98;10.50;;;;;;;;;;8434173;28;20119;-89
2023/07/12 17:38:43;;;;;;;14.93;11.43;;;;;;;;;;8433719;28;20427;-93
2023/07/12 17:42:47;;;;;;;14.15;12.00;;;;;;;;;;8433925;28;20048;-92
2023/07/12 17:46:53;;;;;;;24.42;14.27;;;;;;;;;;8433668;28;20115;-93
2023/07/12 17:51:00;;;;;;;13.15;11.23;;;;;;;;;;8433547;28;20067;-89
2023/07/12 17:55:04;;;;;;;16.73;13.23;;;;;;;;;;8419932;28;20063;-92
2023/07/12 17:59:08;;;;;;;16.38;13.40;;;;;;;;;;8433218;28;20118;-93
2023/07/12 18:03:17;;;;;;;20.80;13.88;;;;;;;;;;8431355;28;20078;-92
2023/07/12 18:07:23;;;;;;;15.63;13.38;;;;;;;;;;8417124;28;20467;-82
2023/07/12 18:11:29;;;;;;;15.23;12.23;;;;;;;;;;8430171;28;20097;-92
2023/07/12 18:15:33;;;;;;;14.95;12.93;;;;;;;;;;8431398;28;20427;-92
2023/07/12 18:19:39;;;;;;;15.70;12.95;;;;;;;;;;8419602;28;20055;-85
2023/07/12 18:23:42;;;;;;;20.27;13.00;;;;;;;;;;8410944;28;20127;-83
2023/07/12 18:27:45;;;;;;;17.15;14.20;;;;;;;;;;8418253;28;20480;-88
2023/07/12 18:31:49;;;;;;;19.88;14.75;;;;;;;;;;8415186;28;20135;-87
2023/07/12 18:35:55;;;;;;;19.95;15.63;;;;;;;;;;8418303;28;20476;-87
2023/07/12 18:39:59;;;;;;;18.02;14.57;;;;;;;;;;8418170;28;20043;-90
2023/07/12 18:44:02;;;;;;;18.35;13.65;;;;;;;;;;8431641;28;20396;-91
2023/07/12 18:48:07;;;;;;;18.25;13.70;;;;;;;;;;8428834;28;20052;-90
2023/07/12 18:52:18;;;;;;;16.65;13.60;;;;;;;;;;8417787;28;20165;-83
2023/07/12 18:56:25;;;;;;;;;;;;;;;;;;8431402;28;20044;-83
2023/07/12 19:00:28;;;;;;;16.40;13.32;;;;;;;;;;8430592;28;19947;-83
2023/07/12 19:04:33;;;;;;;19.33;14.05;;;;;;;;;;8430733;28;20230;-91
2023/07/12 19:08:39;;;;;;;17.17;14.05;;;;;;;;;;8429510;28;20059;-84
2023/07/12 19:12:43;;;;;;;16.70;13.27;;;;;;;;;;8417143;28;20550;-90
2023/07/12 19:16:47;;;;;;;17.70;13.63;;;;;;;;;;8430051;28;20416;-92
2023/07/12 19:20:51;;;;;;;15.38;12.40;;;;;;;;;;8430442;28;20407;-86
2023/07/12 19:25:03;;;;;;;14.75;11.57;;;;;;;;;;8430211;28;20468;-84
2023/07/12 19:29:12;;;;;;;18.60;15.75;;;;;;;;;;8427652;28;20136;-86
2023/07/12 19:33:19;;;;;;;;;;;;;;;;;;8406979;28;20500;-92
2023/07/12 19:37:25;;;;;;;13.20;10.88;;;;;;;;;;8420620;28;19925;-83
2023/07/12 19:41:32;;;;;;;16.50;11.80;;;;;;;;;;8399869;28;20071;-91
2023/07/12 19:45:35;;;;;;;14.23;12.15;;;;;;;;;;8408916;28;20040;-90
2023/07/12 19:49:38;;;;;;;18.20;13.00;;;;;;;;;;8417850;28;20119;-90
2023/07/12 19:53:43;;;;;;;17.40;12.25;;;;;;;;;;8400164;28;20040;-91
2023/07/12 19:57:52;;;;;;;22.13;13.70;;;;;;;;;;8403285;28;20052;-85
2023/07/12 20:01:59;;;;;;;17.75;10.02;;;;;;;;;;8414588;28;20055;-85
2023/07/12 20:06:06;;;;;;;13.80;10.68;;;;;;;;;;8418267;28;20126;-82
2023/07/12 20:10:36;;;;;;;15.10;10.65;;;;;;;;;;8410610;28;20040;-83
2023/07/12 20:14:48;;;;;;;17.40;12.20;;;;;;;;;;8424178;28;20067;-87
2023/07/12 20:18:53;;;;;;;27.17;19.85;;;;;;;;;;8411333;28;20043;-86
2023/07/12 20:22:58;;;;;;;18.42;14.00;;;;;;;;;;8430094;28;20044;-91
2023/07/12 20:27:02;;;;;;;19.63;15.63;;;;;;;;;;8428106;28;20488;-91
2023/07/12 20:31:09;;;;;;;23.30;17.45;;;;;;;;;;8429166;28;20043;-90
2023/07/12 20:35:14;;;;;;;21.75;13.88;;;;;;;;;;8429588;28;20073;-85
2023/07/12 20:39:19;;;;;;;19.02;13.65;;;;;;;;;;8402750;28;20064;-83
2023/07/12 20:43:24;;;;;;;23.63;16.38;;;;;;;;;;8428451;28;20487;-89
2023/07/12 20:47:29;;;;;;;22.33;16.38;;;;;;;;;;8432067;28;20052;-89
2023/07/12 20:51:36;;;;;;;22.27;16.08;;;;;;;;;;8434866;28;20480;-90
2023/07/12 20:55:39;;;;;;;21.40;15.63;;;;;;;;;;8434859;28;20094;-91
2023/07/12 20:59:42;;;;;;;17.40;13.00;;;;;;;;;;8434790;28;20388;-89
2023/07/12 21:03:46;;;;;;;19.27;13.35;;;;;;;;;;8434857;28;20123;-82
2023/07/12 21:07:50;;;;;;;22.15;15.60;;;;;;;;;;8434825;28;20563;-92
2023/07/12 21:11:52;;;;;;;24.23;16.02;;;;;;;;;;8434907;28;20079;-88
2023/07/12 21:15:57;;;;;;;19.48;15.40;;;;;;;;;;8434495;28;20127;-81
2023/07/12 21:20:03;;;;;;;18.23;14.70;;;;;;;;;;8431730;28;20040;-82
2023/07/12 21:24:06;;;;;;;22.23;15.57;;;;;;;;;;8421398;28;20479;-88
2023/07/12 21:28:09;;;;;;;22.77;15.43;;;;;;;;;;8434203;28;20074;-88
2023/07/12 21:32:12;;;;;;;21.65;16.67;;;;;;;;;;8434001;28;20076;-86
2023/07/12 21:36:16;;;;;;;22.67;16.42;;;;;;;;;;8433959;28;20101;-88
2023/07/12 21:40:19;;;;;;;26.48;17.90;;;;;;;;;;8433854;28;20377;-92
2023/07/12 21:44:22;;;;;;;26.00;17.63;;;;;;;;;;8434170;28;20093;-90
2023/07/12 21:48:25;;;;;;;30.00;20.67;;;;;;;;;;8433180;28;20115;-81
2023/07/12 21:52:30;;;;;;;24.98;18.13;;;;;;;;;;8423405;28;20044;-92
2023/07/12 21:56:33;;;;;;;23.50;17.15;;;;;;;;;;8430628;28;20142;-89
2023/07/12 22:00:35;;;;;;;23.10;18.35;;;;;;;;;;8431982;28;20119;-93
2023/07/12 22:04:38;;;;;;;27.42;18.63;;;;;;;;;;8433163;28;20090;-85
2023/07/12 22:08:43;;;;;;;26.77;19.42;;;;;;;;;;8425188;28;20395;-81
2023/07/12 22:12:45;;;;;;;30.15;20.88;;;;;;;;;;8421837;28;20054;-84
2023/07/12 22:16:48;;;;;;;30.88;20.52;;;;;;;;;;8418992;28;20058;-87
2023/07/12 22:20:51;;;;;;;35.08;22.30;;;;;;;;;;8432566;28;20051;-92
2023/07/12 22:24:55;;;;;;;38.88;24.17;;;;;;;;;;8431321;28;20112;-83
2023/07/12 22:28:58;;;;;;;37.83;22.92;;;;;;;;;;8432186;28;20131;-92
2023/07/12 22:33:01;;;;;;;35.83;23.80;;;;;;;;;;8431705;28;20043;-92
2023/07/12 22:37:04;;;;;;;45.33;30.55;;;;;;;;;;8431971;28;20044;-81
2023/07/12 22:41:12;;;;;;;48.13;29.27;;;;;;;;;;8431674;28;20062;-92
2023/07/12 22:45:15;;;;;;;35.83;22.15;;;;;;;;;;8432197;28;20408;-81
2023/07/12 22:49:18;;;;;;;46.22;29.10;;;;;;;;;;8431651;28;20138;-91
2023/07/12 22:53:21;;;;;;;34.05;20.90;;;;;;;;;;8431354;28;20073;-81
2023/07/12 22:57:25;;;;;;;34.35;22.65;;;;;;;;;;8431551;28;20119;-90
2023/07/12 23:01:28;;;;;;;36.97;22.33;;;;;;;;;;8417612;28;20036;-86
2023/07/12 23:05:31;;;;;;;52.30;30.08;;;;;;;;;;8418021;28;20047;-92
2023/07/12 23:09:34;;;;;;;34.17;21.95;;;;;;;;;;8427359;28;20040;-93
2023/07/12 23:13:38;;;;;;;34.50;22.63;;;;;;;;;;8415806;28;20416;-88
2023/07/12 23:17:44;;;;;;;53.92;27.52;;;;;;;;;;8409535;28;20115;-94
2023/07/12 23:21:47;;;;;;;40.10;25.20;;;;;;;;;;8412190;28;20050;-94
2023/07/12 23:25:50;;;;;;;37.80;24.75;;;;;;;;;;8418033;28;20123;-86
2023/07/12 23:29:55;;;;;;;53.67;28.60;;;;;;;;;;8414972;28;20078;-95
2023/07/12 23:33:58;;;;;;;115.25;38.83;;;;;;;;;;8420769;28;20067;-85
2023/07/12 23:38:01;;;;;;;61.17;28.95;;;;;;;;;;8414940;28;20423;-92
2023/07/12 23:42:05;;;;;;;36.17;23.05;;;;;;;;;;8412087;28;20551;-91
2023/07/12 23:46:09;;;;;;;42.55;24.05;;;;;;;;;;8408020;28;20095;-86
2023/07/12 23:50:11;;;;;;;84.55;34.10;;;;;;;;;;8412743;28;20055;-93
2023/07/12 23:54:14;;;;;;;255.90;70.97;;;;;;;;;;8417041;28;20048;-93
2023/07/12 23:58:18;;;;;;;44.58;25.30;;;;;;;;;;8408923;28;20808;-91
